MUCU/SCU METAR and TAF weather

Enter ICAO airport designator
Station Type Date Time Source
MUCU METAR 2020/09/18 15:50 UTC NOAA

MUCU 181550Z 21005KT 9000 SCT020 30/25 Q1014


Station Type Date Time Source
MUCU Decoded METAR 2020/09/18 15:50 UTC NOAA

Santiago De Cuba, Oriente, Cuba (MUCU) 19-58N 075-51W 55M
Sep 18, 2020 - 11:50 AM EDT / 2020.09.18 1550 UTC
Wind: from the SSW (210 degrees) at 6 MPH (5 KT):0
Visibility: 5 mile(s):0
Sky conditions: partly cloudy
Temperature: 86 F (30 C)
Heat index: 96.8 F (36.0 C):1
Dew Point: 77 F (25 C)
Relative Humidity: 74%
Pressure (altimeter): 29.94 in. Hg (1014 hPa)
ob: MUCU 181550Z 21005KT 9000 SCT020 30/25 Q1014
cycle: 16

Station Type Date Time Source
MUCU TAF 2020/09/18 12:03 UTC NOAA

TAF MUCU 181100Z 1812/1912 VRB03KT 9000 SCT020
BECMG 1815/1817 18008KT
TEMPO 1818/1824 SCT018CB BKN020
BECMG 1901/1903 VRB03KT

Example: see airport list